Time;durP1;ratioP1;P1;durP2;ratioP2;P2;SDS_P1;SDS_P2;PMS_P1;PMS_P2;Temp;Humidity;BMP_temperature;BMP_pressure;BME280_temperature;BME280_humidity;BME280_pressure;Samples;Min_cycle;Max_cycle;Signal;HPM_P1;HPM_P2
2022/07/06 00:01:30;;;;;;;3.22;0.52;;;14.90;99.50;;;;;;5006792;28;20212;-45
2022/07/06 00:03:55;;;;;;;2.38;0.40;;;14.90;99.50;;;;;;5002296;28;20483;-46
2022/07/06 00:06:22;;;;;;;2.58;0.40;;;14.90;99.40;;;;;;5007070;28;20050;-45
2022/07/06 00:08:48;;;;;;;4.20;0.50;;;15.00;99.50;;;;;;5005875;28;20518;-47
2022/07/06 00:11:13;;;;;;;1.63;0.30;;;15.00;99.30;;;;;;5004786;28;20046;-47
2022/07/06 00:13:39;;;;;;;3.10;0.40;;;15.00;99.10;;;;;;5007093;28;20040;-47
2022/07/06 00:16:05;;;;;;;2.67;0.45;;;15.10;98.90;;;;;;5006923;28;20033;-49
2022/07/06 00:18:31;;;;;;;1.08;0.30;;;15.10;98.60;;;;;;5006001;28;20046;-46
2022/07/06 00:20:57;;;;;;;2.22;0.30;;;15.10;98.40;;;;;;5004068;28;20541;-46
2022/07/06 00:23:23;;;;;;;1.05;0.20;;;15.20;98.60;;;;;;5003356;28;20633;-51
2022/07/06 00:25:49;;;;;;;1.90;0.40;;;15.20;98.70;;;;;;5003234;28;20092;-48
2022/07/06 00:28:14;;;;;;;1.23;0.20;;;15.30;98.80;;;;;;5005713;28;20128;-50
2022/07/06 00:30:40;;;;;;;1.45;0.20;;;15.30;99.00;;;;;;5001648;28;20031;-49
2022/07/06 00:33:06;;;;;;;2.13;0.40;;;15.30;99.20;;;;;;5005022;28;20042;-47
2022/07/06 00:35:32;;;;;;;1.67;0.30;;;15.30;99.20;;;;;;5006202;28;20151;-53
2022/07/06 00:37:58;;;;;;;1.95;0.30;;;15.30;99.00;;;;;;5002856;28;20041;-52
2022/07/06 00:40:24;;;;;;;1.80;0.30;;;15.20;98.90;;;;;;5005453;28;20093;-49
2022/07/06 00:42:50;;;;;;;1.77;0.30;;;15.20;99.10;;;;;;5004548;28;20085;-45
2022/07/06 00:45:17;;;;;;;3.90;0.45;;;15.20;99.40;;;;;;5007271;28;20574;-46
2022/07/06 00:47:43;;;;;;;2.17;0.30;;;15.10;99.30;;;;;;5005548;28;20041;-48
2022/07/06 00:50:14;;;;;;;2.55;0.20;;;15.10;99.10;;;;;;5007166;28;20037;-44
2022/07/06 00:52:45;;;;;;;1.67;0.32;;;15.10;99.30;;;;;;5005823;28;20045;-48
2022/07/06 00:55:13;;;;;;;2.63;0.40;;;15.10;99.40;;;;;;5006173;28;20092;-48
2022/07/06 00:57:39;;;;;;;2.80;0.30;;;15.20;99.30;;;;;;5001563;28;20362;-50
2022/07/06 01:00:07;;;;;;;2.03;0.50;;;15.20;99.30;;;;;;4999292;28;20080;-48
2022/07/06 01:02:34;;;;;;;1.80;0.30;;;15.20;99.30;;;;;;5004382;28;20086;-44
2022/07/06 01:05:00;;;;;;;2.10;0.38;;;15.30;99.30;;;;;;4998861;28;20787;-48
2022/07/06 01:07:28;;;;;;;1.40;0.40;;;15.30;99.30;;;;;;5002568;28;20129;-49
2022/07/06 01:09:54;;;;;;;1.95;0.50;;;15.30;99.30;;;;;;5006364;28;20491;-48
2022/07/06 01:12:20;;;;;;;3.90;0.50;;;15.30;99.20;;;;;;5005534;28;20048;-47
2022/07/06 01:14:46;;;;;;;1.35;0.30;;;15.20;99.60;;;;;;5004976;28;20101;-47
2022/07/06 01:17:14;;;;;;;0.85;0.40;;;15.20;99.60;;;;;;5000600;28;20558;-45
2022/07/06 01:19:39;;;;;;;2.25;0.50;;;15.20;99.90;;;;;;5003192;28;20415;-48
2022/07/06 01:22:05;;;;;;;1.05;0.30;;;15.20;99.90;;;;;;5001862;28;20034;-48
2022/07/06 01:24:31;;;;;;;2.03;0.40;;;15.10;99.90;;;;;;5005730;28;20046;-45
2022/07/06 01:26:57;;;;;;;2.63;0.40;;;15.20;99.90;;;;;;5004231;28;20073;-46
2022/07/06 01:29:23;;;;;;;1.58;0.50;;;15.20;99.90;;;;;;5019489;28;20042;-47
2022/07/06 01:31:50;;;;;;;3.03;0.40;;;15.10;99.90;;;;;;5003370;28;20037;-44
2022/07/06 01:34:17;;;;;;;3.13;0.47;;;15.20;99.90;;;;;;5002584;28;20125;-44
2022/07/06 01:36:44;;;;;;;0.98;0.30;;;15.20;99.90;;;;;;5002706;28;20038;-46
2022/07/06 01:39:10;;;;;;;1.88;0.30;;;15.20;99.90;;;;;;5003437;28;20073;-45
2022/07/06 01:41:36;;;;;;;2.70;0.30;;;15.20;99.90;;;;;;4994815;28;20451;-43
2022/07/06 01:44:04;;;;;;;4.97;0.40;;;15.20;99.90;;;;;;5002997;28;20527;-43
2022/07/06 01:46:29;;;;;;;0.82;0.20;;;15.20;99.90;;;;;;5000126;28;20081;-48
2022/07/06 01:48:55;;;;;;;1.85;0.28;;;15.20;99.90;;;;;;4998733;28;20092;-45
2022/07/06 01:51:21;;;;;;;1.75;0.30;;;15.20;99.90;;;;;;5003927;28;20506;-49
2022/07/06 01:53:47;;;;;;;2.05;0.40;;;15.20;99.90;;;;;;5002364;28;20050;-46
2022/07/06 01:56:13;;;;;;;1.52;0.50;;;15.30;99.90;;;;;;5001636;28;20415;-48
2022/07/06 01:58:39;;;;;;;3.97;0.57;;;15.20;99.90;;;;;;5002848;28;20041;-45
2022/07/06 02:01:10;;;;;;;3.13;0.40;;;15.20;99.90;;;;;;5003944;28;20511;-47
2022/07/06 02:03:36;;;;;;;1.98;0.30;;;15.10;99.90;;;;;;4998978;28;20082;-48
2022/07/06 02:06:02;;;;;;;4.38;0.40;;;15.00;99.90;;;;;;5000056;28;20344;-48
2022/07/06 02:08:28;;;;;;;1.98;0.28;;;15.00;99.90;;;;;;5001835;28;20029;-47
2022/07/06 02:10:54;;;;;;;2.53;0.35;;;15.00;99.90;;;;;;4999264;28;20022;-44
2022/07/06 02:13:20;;;;;;;2.33;0.30;;;15.00;99.90;;;;;;5000184;28;20030;-50
2022/07/06 02:15:46;;;;;;;4.45;0.40;;;15.00;99.90;;;;;;5003158;28;20033;-45
2022/07/06 02:18:11;;;;;;;2.72;0.30;;;15.00;99.90;;;;;;5002783;28;20041;-44
2022/07/06 02:20:37;;;;;;;1.42;0.38;;;15.10;99.90;;;;;;4998364;28;20042;-44
2022/07/06 02:23:03;;;;;;;2.80;0.30;;;15.10;99.90;;;;;;5005296;28;20133;-47
2022/07/06 02:25:29;;;;;;;2.03;0.30;;;15.10;99.90;;;;;;5017442;28;20108;-43
2022/07/06 02:27:55;;;;;;;3.70;0.30;;;15.10;99.90;;;;;;5004650;28;20053;-44
2022/07/06 02:30:20;;;;;;;3.85;0.50;;;15.10;99.90;;;;;;5003547;28;20568;-47
2022/07/06 02:32:46;;;;;;;2.15;0.30;;;15.10;99.90;;;;;;5004023;28;20061;-45
2022/07/06 02:35:12;;;;;;;3.15;0.30;;;15.10;99.90;;;;;;5003721;28;20227;-47
2022/07/06 02:37:38;;;;;;;2.35;0.28;;;15.10;99.90;;;;;;5006807;28;20046;-48
2022/07/06 02:40:04;;;;;;;1.75;0.30;;;15.10;99.90;;;;;;5006974;28;20045;-44
2022/07/06 02:42:30;;;;;;;1.58;0.28;;;15.10;99.90;;;;;;5000211;28;20092;-43
2022/07/06 02:44:55;;;;;;;2.95;0.30;;;15.10;99.90;;;;;;5005780;28;20038;-46
2022/07/06 02:47:21;;;;;;;2.10;0.30;;;15.20;99.90;;;;;;5001709;28;20046;-49
2022/07/06 02:49:47;;;;;;;1.55;0.55;;;15.20;99.90;;;;;;5005946;28;20042;-44
2022/07/06 02:52:13;;;;;;;3.03;0.30;;;15.20;99.90;;;;;;5005743;28;20100;-45
2022/07/06 02:54:38;;;;;;;1.73;0.30;;;15.20;99.90;;;;;;5005584;28;20046;-42
2022/07/06 02:57:04;;;;;;;1.92;0.47;;;15.20;99.90;;;;;;5005685;28;20037;-48
2022/07/06 02:59:30;;;;;;;4.07;0.73;;;15.20;99.90;;;;;;5006011;28;20060;-44
2022/07/06 03:01:55;;;;;;;4.22;0.30;;;15.10;99.90;;;;;;5001566;28;20069;-44
2022/07/06 03:04:21;;;;;;;4.13;0.50;;;15.10;99.90;;;;;;5004099;28;20053;-48
2022/07/06 03:06:46;;;;;;;1.98;0.22;;;15.10;99.90;;;;;;5003345;28;20104;-43
2022/07/06 03:09:12;;;;;;;1.67;0.40;;;15.10;99.90;;;;;;5004102;28;21330;-44
2022/07/06 03:11:38;;;;;;;3.15;0.40;;;15.10;99.90;;;;;;5008399;28;20099;-45
2022/07/06 03:14:04;;;;;;;2.20;0.30;;;15.10;99.90;;;;;;5021230;28;20026;-44
2022/07/06 03:16:30;;;;;;;3.60;0.40;;;15.10;99.90;;;;;;5004885;28;20067;-43
2022/07/06 03:18:56;;;;;;;2.50;0.20;;;15.10;99.90;;;;;;5007049;28;20042;-46
2022/07/06 03:21:25;;;;;;;1.25;0.30;;;15.10;99.90;;;;;;5004558;28;20088;-45
2022/07/06 03:23:51;;;;;;;1.35;0.50;;;15.10;99.90;;;;;;5000950;28;20068;-44
2022/07/06 03:26:16;;;;;;;0.95;0.20;;;15.10;99.90;;;;;;5004277;28;20042;-45
2022/07/06 03:28:42;;;;;;;0.80;0.20;;;15.10;99.90;;;;;;5005328;28;20026;-44
2022/07/06 03:31:08;;;;;;;3.28;0.30;;;15.10;99.90;;;;;;5004944;28;20117;-44
2022/07/06 03:33:33;;;;;;;0.95;0.20;;;15.10;99.90;;;;;;5005164;28;20095;-42
2022/07/06 03:35:59;;;;;;;1.45;0.30;;;15.10;99.90;;;;;;5003974;28;20120;-45
2022/07/06 03:38:25;;;;;;;3.50;0.30;;;15.10;99.90;;;;;;5000176;28;20048;-43
2022/07/06 03:40:50;;;;;;;1.90;0.30;;;15.10;99.90;;;;;;5000416;28;20038;-45
2022/07/06 03:43:17;;;;;;;1.27;0.40;;;15.20;99.90;;;;;;5004457;28;20060;-44
2022/07/06 03:45:42;;;;;;;2.05;0.30;;;15.20;99.90;;;;;;5003977;28;20499;-46
2022/07/06 03:48:08;;;;;;;2.22;0.32;;;15.10;99.90;;;;;;5003685;28;20053;-42
2022/07/06 03:50:34;;;;;;;1.23;0.30;;;15.10;99.90;;;;;;5005450;28;20034;-43
2022/07/06 03:52:59;;;;;;;4.97;0.30;;;15.10;99.90;;;;;;5002861;28;20091;-44
2022/07/06 03:55:25;;;;;;;2.78;0.28;;;15.10;99.90;;;;;;5001757;28;20522;-49
2022/07/06 03:57:51;;;;;;;4.60;0.50;;;15.10;99.90;;;;;;5004774;28;20121;-44
2022/07/06 04:00:16;;;;;;;3.22;0.60;;;15.00;99.90;;;;;;5002960;28;20038;-44
2022/07/06 04:02:42;;;;;;;1.92;0.40;;;15.00;99.90;;;;;;5004134;28;20046;-43
2022/07/06 04:05:08;;;;;;;3.65;0.28;;;15.00;99.90;;;;;;5003880;28;20092;-44
2022/07/06 04:07:33;;;;;;;5.40;0.32;;;14.90;99.90;;;;;;5003953;28;20371;-43
2022/07/06 04:09:59;;;;;;;2.45;0.45;;;14.90;99.90;;;;;;5006455;28;20121;-44
2022/07/06 04:12:25;;;;;;;2.63;0.43;;;14.80;99.90;;;;;;5000760;28;20072;-44
2022/07/06 04:14:50;;;;;;;1.73;0.40;;;14.80;99.90;;;;;;5002054;28;20057;-48
2022/07/06 04:20:00;;;;;;;6.50;0.75;;;14.70;99.90;;;;;;5005897;28;20483;-45
2022/07/06 04:22:26;;;;;;;3.78;0.70;;;14.70;99.90;;;;;;5003954;28;20068;-47
2022/07/06 04:24:51;;;;;;;0.85;0.30;;;14.70;99.90;;;;;;4999447;28;20040;-47
2022/07/06 04:27:17;;;;;;;1.88;0.25;;;14.70;99.90;;;;;;5003208;28;20030;-44
2022/07/06 04:29:43;;;;;;;1.63;0.30;;;14.70;99.90;;;;;;4999181;28;20100;-44
2022/07/06 04:32:08;;;;;;;1.95;0.40;;;14.80;99.90;;;;;;5003487;28;20095;-46
2022/07/06 04:34:34;;;;;;;1.48;0.30;;;14.90;99.90;;;;;;5003766;28;20069;-45
2022/07/06 04:37:00;;;;;;;4.35;0.40;;;14.90;99.90;;;;;;5004308;28;20100;-43
2022/07/06 04:39:25;;;;;;;2.63;0.40;;;14.90;99.90;;;;;;5003266;28;20127;-44
2022/07/06 04:41:51;;;;;;;1.60;0.30;;;15.00;99.90;;;;;;5003440;28;21489;-48
2022/07/06 04:44:16;;;;;;;4.00;0.40;;;15.00;99.90;;;;;;5001706;28;20073;-42
2022/07/06 04:46:42;;;;;;;1.15;0.30;;;15.00;99.90;;;;;;4997529;28;20058;-42
2022/07/06 04:49:08;;;;;;;5.57;0.40;;;15.00;99.90;;;;;;5000291;28;20125;-44
2022/07/06 04:51:33;;;;;;;1.55;0.32;;;15.10;99.90;;;;;;5004505;28;20189;-44
2022/07/06 04:53:59;;;;;;;2.30;0.55;;;15.10;99.90;;;;;;5003160;28;20117;-44
2022/07/06 04:56:25;;;;;;;4.20;0.47;;;15.10;99.90;;;;;;4998755;28;20064;-43
2022/07/06 04:58:50;;;;;;;1.40;0.20;;;15.10;99.90;;;;;;4999186;28;20590;-48
2022/07/06 05:01:16;;;;;;;2.90;0.60;;;15.10;99.90;;;;;;5000653;28;20570;-44
2022/07/06 05:03:42;;;;;;;1.20;0.28;;;15.10;99.90;;;;;;5002026;28;20065;-43
2022/07/06 05:06:08;;;;;;;3.65;0.38;;;15.10;99.90;;;;;;5002366;28;20033;-44
2022/07/06 05:08:34;;;;;;;1.33;0.30;;;15.10;99.90;;;;;;5003884;28;20042;-43
2022/07/06 05:11:00;;;;;;;0.85;0.30;;;15.20;99.90;;;;;;4998304;28;20482;-45
2022/07/06 05:13:25;;;;;;;5.03;0.50;;;15.20;99.90;;;;;;5006152;28;20037;-45
2022/07/06 05:15:51;;;;;;;3.28;0.50;;;15.20;99.90;;;;;;4999196;28;20494;-47
2022/07/06 05:18:17;;;;;;;3.35;0.70;;;15.20;99.90;;;;;;5002897;28;20510;-42
2022/07/06 05:20:44;;;;;;;2.05;0.30;;;15.20;99.90;;;;;;4997873;28;20466;-47
2022/07/06 05:23:09;;;;;;;4.68;0.50;;;15.20;99.90;;;;;;5001942;28;20052;-45
2022/07/06 05:25:36;;;;;;;1.13;0.30;;;15.20;99.90;;;;;;4997059;28;20125;-43
2022/07/06 05:28:02;;;;;;;0.85;0.40;;;15.30;99.90;;;;;;5002077;28;20495;-42
2022/07/06 05:30:28;;;;;;;7.45;0.60;;;15.30;99.90;;;;;;5001358;28;20038;-43
2022/07/06 05:32:54;;;;;;;3.78;0.30;;;15.40;99.90;;;;;;4998937;28;20601;-48
2022/07/06 05:35:19;;;;;;;2.72;0.35;;;15.40;99.90;;;;;;5003703;28;20125;-43
2022/07/06 05:37:45;;;;;;;2.60;0.30;;;15.40;99.90;;;;;;5002615;28;20057;-46
2022/07/06 05:40:11;;;;;;;4.32;0.50;;;15.50;99.90;;;;;;5003369;28;20498;-44
2022/07/06 05:42:37;;;;;;;2.10;0.43;;;15.60;99.90;;;;;;5000213;28;20042;-45
2022/07/06 05:45:04;;;;;;;2.08;0.30;;;15.70;99.90;;;;;;5000466;28;20045;-50
2022/07/06 05:50:14;;;;;;;1.60;0.20;;;16.00;98.80;;;;;;4997648;28;20454;-43
2022/07/06 05:52:44;;;;;;;2.75;0.35;;;16.00;98.10;;;;;;5001513;28;20464;-45
2022/07/06 05:55:12;;;;;;;2.83;0.20;;;16.10;98.00;;;;;;4997030;28;20041;-49
2022/07/06 05:57:40;;;;;;;2.65;0.20;;;16.20;97.60;;;;;;5002085;28;20045;-45
2022/07/06 06:00:07;;;;;;;2.80;0.32;;;16.30;97.00;;;;;;5001688;28;20037;-46
2022/07/06 06:02:40;;;;;;;3.72;0.45;;;16.30;96.50;;;;;;4996730;28;20069;-44
2022/07/06 06:05:10;;;;;;;3.60;0.22;;;16.30;96.30;;;;;;4998781;28;20508;-42
2022/07/06 06:07:37;;;;;;;3.88;0.20;;;16.40;96.00;;;;;;4999985;28;20166;-51
2022/07/06 06:10:08;;;;;;;2.53;0.20;;;16.40;95.60;;;;;;5004433;28;20183;-43
2022/07/06 06:12:34;;;;;;;3.22;0.60;;;16.50;94.80;;;;;;5004104;28;20074;-46
2022/07/06 06:15:00;;;;;;;1.80;0.30;;;16.40;94.40;;;;;;5000498;28;20072;-43
2022/07/06 06:17:26;;;;;;;1.08;0.13;;;16.40;94.10;;;;;;5001584;28;20034;-43
2022/07/06 06:19:52;;;;;;;0.68;0.15;;;16.30;94.40;;;;;;5001425;28;20034;-44
2022/07/06 06:22:17;;;;;;;1.25;0.40;;;16.30;94.90;;;;;;5008017;28;20038;-44
2022/07/06 06:24:43;;;;;;;0.65;0.20;;;16.40;95.00;;;;;;5006051;28;20076;-43
2022/07/06 06:27:09;;;;;;;2.20;0.28;;;16.50;95.00;;;;;;5001661;28;20042;-43
2022/07/06 06:29:34;;;;;;;1.33;0.20;;;16.50;95.00;;;;;;5006128;28;20229;-44
2022/07/06 06:32:00;;;;;;;1.73;0.20;;;16.60;95.00;;;;;;5008942;28;20108;-43
2022/07/06 06:34:26;;;;;;;1.67;0.30;;;16.50;94.90;;;;;;5005329;28;20448;-47
2022/07/06 06:36:51;;;;;;;2.05;0.50;;;16.50;94.80;;;;;;5007531;28;20136;-44
2022/07/06 06:39:17;;;;;;;1.13;0.30;;;16.50;95.00;;;;;;5007840;28;20055;-52
2022/07/06 06:41:43;;;;;;;2.17;0.20;;;16.50;95.50;;;;;;5006849;28;20121;-43
2022/07/06 06:44:08;;;;;;;1.63;0.30;;;16.50;94.90;;;;;;5003600;28;20048;-51
2022/07/06 06:46:34;;;;;;;1.27;0.15;;;16.40;93.90;;;;;;5006178;28;20084;-44
2022/07/06 06:49:00;;;;;;;1.45;0.20;;;16.30;94.60;;;;;;5009034;28;20041;-45
2022/07/06 06:51:26;;;;;;;0.52;0.15;;;16.30;94.80;;;;;;5000343;28;20038;-46
2022/07/06 06:53:51;;;;;;;2.35;0.43;;;16.30;94.80;;;;;;5004355;28;20076;-43
2022/07/06 06:56:17;;;;;;;2.58;0.35;;;16.30;94.70;;;;;;5001627;28;20080;-49
2022/07/06 06:58:43;;;;;;;4.68;0.25;;;16.30;95.40;;;;;;5004518;28;21787;-44
2022/07/06 07:01:09;;;;;;;2.03;0.20;;;16.40;94.60;;;;;;5009562;28;20037;-44
2022/07/06 07:03:35;;;;;;;1.38;0.20;;;16.50;93.90;;;;;;5000608;28;20519;-44
2022/07/06 07:06:01;;;;;;;1.20;0.20;;;16.60;93.60;;;;;;5001023;28;20038;-43
2022/07/06 07:08:26;;;;;;;3.30;0.15;;;16.60;93.20;;;;;;5003772;28;20380;-48
2022/07/06 07:10:52;;;;;;;0.80;0.28;;;16.60;93.00;;;;;;5002976;28;20074;-44
2022/07/06 07:13:18;;;;;;;1.40;0.20;;;16.70;93.20;;;;;;5001983;28;20065;-50
2022/07/06 07:15:43;;;;;;;1.23;0.22;;;16.80;93.30;;;;;;5002748;28;20471;-43
2022/07/06 07:18:09;;;;;;;3.20;0.35;;;16.90;92.60;;;;;;5007185;28;20401;-47
2022/07/06 07:20:34;;;;;;;2.58;0.30;;;17.00;92.60;;;;;;5008526;28;20547;-43
2022/07/06 07:23:00;;;;;;;1.33;0.20;;;17.10;92.50;;;;;;5006476;28;20108;-46
2022/07/06 07:25:27;;;;;;;2.38;0.30;;;17.20;92.10;;;;;;5007930;28;20510;-48
2022/07/06 07:27:53;;;;;;;2.22;0.30;;;17.40;92.20;;;;;;5007658;28;20040;-45
2022/07/06 07:30:19;;;;;;;2.60;0.20;;;17.50;91.90;;;;;;5006285;28;20029;-48
2022/07/06 07:32:45;;;;;;;3.08;0.32;;;17.60;91.50;;;;;;5003853;28;20042;-46
2022/07/06 07:35:11;;;;;;;2.70;0.30;;;17.70;91.30;;;;;;5004823;28;20554;-44
2022/07/06 07:37:37;;;;;;;0.60;0.10;;;17.70;90.70;;;;;;5003716;28;20069;-45
2022/07/06 07:40:04;;;;;;;2.53;0.20;;;17.70;90.60;;;;;;5006481;28;20046;-44
2022/07/06 07:42:30;;;;;;;1.75;0.13;;;17.80;90.70;;;;;;5003973;28;20134;-46
2022/07/06 07:44:55;;;;;;;2.13;0.20;;;17.80;90.20;;;;;;5005401;28;20124;-44
2022/07/06 07:47:21;;;;;;;2.10;0.20;;;17.80;89.60;;;;;;5008804;28;20045;-44
2022/07/06 07:49:46;;;;;;;2.92;0.30;;;17.70;89.70;;;;;;5004341;28;20443;-44
2022/07/06 07:52:12;;;;;;;9.38;0.40;;;17.70;89.50;;;;;;5005543;28;20034;-44
2022/07/06 07:54:38;;;;;;;2.17;0.22;;;17.60;90.10;;;;;;5005318;28;20060;-45
2022/07/06 07:57:04;;;;;;;1.23;0.20;;;17.60;91.00;;;;;;5005580;28;20399;-44
2022/07/06 07:59:30;;;;;;;2.50;0.20;;;17.80;90.60;;;;;;5003412;28;20065;-49
2022/07/06 08:01:55;;;;;;;1.27;0.13;;;17.80;89.90;;;;;;5007494;28;20042;-48
2022/07/06 08:04:21;;;;;;;1.58;0.20;;;17.70;90.10;;;;;;5004220;28;20068;-45
2022/07/06 08:06:47;;;;;;;3.20;0.20;;;17.50;90.40;;;;;;5003924;28;20168;-49
2022/07/06 08:09:13;;;;;;;3.22;0.20;;;17.40;90.50;;;;;;5007357;28;20061;-44
2022/07/06 08:11:39;;;;;;;0.70;0.10;;;17.40;90.90;;;;;;5007448;28;20124;-47
2022/07/06 08:14:05;;;;;;;0.95;0.28;;;17.50;90.70;;;;;;5007253;28;20116;-44
2022/07/06 08:16:31;;;;;;;1.35;0.45;;;17.50;90.70;;;;;;5002011;28;20125;-47
2022/07/06 08:18:57;;;;;;;1.23;0.20;;;17.40;91.00;;;;;;5004158;28;20108;-43
2022/07/06 08:21:24;;;;;;;2.30;0.20;;;17.50;90.50;;;;;;5001920;28;20042;-43
2022/07/06 08:23:49;;;;;;;1.60;0.43;;;17.70;89.60;;;;;;5005495;28;20037;-43
2022/07/06 08:26:15;;;;;;;1.58;0.10;;;18.00;88.30;;;;;;5006624;28;20053;-45
2022/07/06 08:28:42;;;;;;;1.30;0.20;;;18.40;87.80;;;;;;5006988;28;20054;-45
2022/07/06 08:31:08;;;;;;;0.47;0.20;;;18.70;86.20;;;;;;5007425;28;20653;-43
2022/07/06 08:33:33;;;;;;;5.13;0.10;;;18.80;83.90;;;;;;4987914;28;20333;-44
2022/07/06 08:35:59;;;;;;;3.33;0.15;;;18.80;83.10;;;;;;5007317;28;20352;-45
2022/07/06 08:38:25;;;;;;;1.27;0.20;;;18.90;83.20;;;;;;4999565;28;20033;-43
2022/07/06 08:40:51;;;;;;;0.85;0.13;;;18.90;82.30;;;;;;5006332;28;20053;-43
2022/07/06 08:43:17;;;;;;;1.92;0.10;;;18.90;81.50;;;;;;5006232;28;20125;-43
2022/07/06 08:45:44;;;;;;;0.65;0.15;;;19.00;81.40;;;;;;5004421;28;20562;-47
2022/07/06 08:48:11;;;;;;;1.67;0.32;;;19.20;79.90;;;;;;5005898;28;20462;-43
2022/07/06 08:50:37;;;;;;;0.90;0.10;;;19.40;75.00;;;;;;5006684;28;20038;-44
2022/07/06 08:53:04;;;;;;;1.50;0.20;;;19.40;73.20;;;;;;5002957;28;20033;-43
2022/07/06 08:55:30;;;;;;;2.30;0.20;;;19.50;72.90;;;;;;5007063;28;20093;-43
2022/07/06 08:57:57;;;;;;;1.65;0.20;;;19.70;72.50;;;;;;5006172;28;20050;-43
2022/07/06 09:00:27;;;;;;;1.88;0.43;;;19.90;71.80;;;;;;5007366;28;20052;-44
2022/07/06 09:02:56;;;;;;;1.88;0.22;;;20.20;70.80;;;;;;5002829;28;20500;-43
2022/07/06 09:05:23;;;;;;;1.52;0.20;;;20.30;66.10;;;;;;5002997;28;20050;-44
2022/07/06 09:07:50;;;;;;;2.33;0.25;;;20.20;64.70;;;;;;5005250;28;20034;-43
2022/07/06 09:10:24;;;;;;;1.02;0.10;;;20.10;66.80;;;;;;5001984;28;20125;-45
2022/07/06 09:12:50;;;;;;;0.98;0.13;;;19.90;65.00;;;;;;5000863;28;20216;-43
2022/07/06 09:15:16;;;;;;;4.93;0.20;;;19.90;65.80;;;;;;5005988;28;20128;-42
2022/07/06 09:17:43;;;;;;;1.15;0.30;;;19.90;67.50;;;;;;5006483;28;20046;-44
2022/07/06 09:20:11;;;;;;;1.17;0.32;;;19.90;68.40;;;;;;5004130;28;20165;-45
2022/07/06 09:22:37;;;;;;;0.75;0.20;;;20.00;70.00;;;;;;5001702;28;20054;-45
2022/07/06 09:25:04;;;;;;;1.05;0.20;;;20.10;69.60;;;;;;5004667;28;20041;-43
2022/07/06 09:27:30;;;;;;;1.55;0.20;;;20.40;68.50;;;;;;5005892;28;20513;-43
2022/07/06 09:30:01;;;;;;;3.53;0.30;;;20.60;66.50;;;;;;5006906;28;20030;-45
2022/07/06 09:32:27;;;;;;;0.52;0.17;;;20.90;62.70;;;;;;5000581;28;20076;-44
2022/07/06 09:34:54;;;;;;;0.45;0.10;;;21.20;62.10;;;;;;5004803;28;20070;-42
2022/07/06 09:37:23;;;;;;;1.25;0.10;;;21.20;61.60;;;;;;5007675;28;20451;-48
2022/07/06 09:39:49;;;;;;;1.60;0.30;;;20.90;62.80;;;;;;5008432;28;20488;-42
2022/07/06 09:42:15;;;;;;;2.22;0.22;;;20.60;64.90;;;;;;5001277;28;20042;-43
2022/07/06 09:44:41;;;;;;;1.75;0.20;;;20.30;66.60;;;;;;5002005;28;20358;-44
2022/07/06 09:47:12;;;;;;;1.83;0.30;;;20.10;67.60;;;;;;5011393;28;20045;-43
2022/07/06 09:49:39;;;;;;;1.67;0.20;;;20.00;67.10;;;;;;5001966;28;20483;-42
2022/07/06 09:52:07;;;;;;;1.83;0.20;;;19.90;67.80;;;;;;5007829;28;20512;-46
2022/07/06 09:54:34;;;;;;;2.65;0.22;;;20.00;68.50;;;;;;5007734;28;20112;-44
2022/07/06 09:57:01;;;;;;;1.85;0.30;;;20.30;68.40;;;;;;5009463;28;20034;-44
2022/07/06 09:59:31;;;;;;;0.73;0.30;;;20.50;66.50;;;;;;5008289;28;20064;-43
2022/07/06 10:02:00;;;;;;;1.27;0.28;;;20.70;65.60;;;;;;5001115;28;20038;-42
2022/07/06 10:04:27;;;;;;;3.03;0.65;;;20.60;65.00;;;;;;5003528;28;20069;-42
2022/07/06 10:06:54;;;;;;;3.03;0.20;;;20.50;65.50;;;;;;5006317;28;20046;-42
2022/07/06 10:09:21;;;;;;;1.55;0.10;;;20.50;66.10;;;;;;5008626;28;20100;-43
2022/07/06 10:12:01;;;;;;;1.10;0.20;;;20.50;64.90;;;;;;4999182;28;20118;-42
2022/07/06 10:14:30;;;;;;;0.73;0.10;;;20.70;63.10;;;;;;5002595;28;20037;-43
2022/07/06 10:17:01;;;;;;;0.60;0.10;;;20.90;63.90;;;;;;5005793;28;20038;-47
2022/07/06 10:19:28;;;;;;;0.82;0.17;;;21.20;62.90;;;;;;5006690;28;20118;-43
2022/07/06 10:21:58;;;;;;;2.25;0.20;;;21.30;61.50;;;;;;5005718;28;20099;-46
2022/07/06 10:24:24;;;;;;;2.63;0.30;;;21.40;60.80;;;;;;5007333;28;20042;-43
2022/07/06 10:26:50;;;;;;;1.10;0.20;;;21.30;61.80;;;;;;5008765;28;20494;-48
2022/07/06 10:29:16;;;;;;;1.40;0.30;;;21.40;62.80;;;;;;5010638;28;20080;-43
2022/07/06 10:31:47;;;;;;;1.30;0.30;;;21.50;61.00;;;;;;5006945;28;20073;-42
2022/07/06 10:34:19;;;;;;;1.60;0.20;;;21.40;58.80;;;;;;5007767;28;20398;-42
2022/07/06 10:36:50;;;;;;;0.55;0.13;;;21.40;58.80;;;;;;5001236;28;20045;-42
2022/07/06 10:42:05;;;;;;;2.03;0.20;;;21.60;56.30;;;;;;5001011;28;20120;-42
2022/07/06 10:44:31;;;;;;;1.30;0.20;;;21.60;57.60;;;;;;4999990;28;20457;-44
2022/07/06 10:46:58;;;;;;;0.20;0.10;;;21.70;57.20;;;;;;5005175;28;20042;-42
2022/07/06 10:49:26;;;;;;;2.72;0.30;;;21.80;57.10;;;;;;5007768;28;20041;-45
2022/07/06 10:51:56;;;;;;;1.90;0.20;;;21.80;57.40;;;;;;5002668;28;20048;-42
2022/07/06 10:54:22;;;;;;;1.20;0.30;;;21.80;55.70;;;;;;5003807;28;20039;-43
2022/07/06 10:56:51;;;;;;;1.35;0.10;;;21.90;56.10;;;;;;5005872;28;20452;-43
2022/07/06 10:59:19;;;;;;;1.17;0.20;;;22.10;54.60;;;;;;5001359;28;20052;-44
2022/07/06 11:02:19;;;;;;;0.63;0.10;;;22.10;53.80;;;;;;5001018;28;20045;-42
2022/07/06 11:04:49;;;;;;;3.45;0.57;;;22.10;52.80;;;;;;5008173;28;20189;-43
2022/07/06 11:07:19;;;;;;;1.27;0.20;;;22.00;54.30;;;;;;5005702;28;20037;-41
2022/07/06 11:09:56;;;;;;;0.90;0.20;;;21.80;54.30;;;;;;5004374;28;20053;-42
2022/07/06 11:12:22;;;;;;;0.68;0.20;;;21.80;53.90;;;;;;5008220;28;20048;-43
2022/07/06 11:14:49;;;;;;;3.60;0.43;;;21.90;54.80;;;;;;5006027;28;20113;-45
2022/07/06 11:17:16;;;;;;;2.05;0.22;;;22.00;53.60;;;;;;5002573;28;20410;-43
2022/07/06 11:20:08;;;;;;;3.35;0.40;;;21.90;54.70;;;;;;5004683;28;20050;-42
2022/07/06 11:22:36;;;;;;;0.85;0.17;;;21.90;54.10;;;;;;5004623;28;20084;-44
2022/07/06 11:25:02;;;;;;;4.15;0.25;;;21.90;53.90;;;;;;5003098;28;20085;-42
2022/07/06 11:27:29;;;;;;;2.70;0.20;;;22.00;53.10;;;;;;5022671;28;20593;-43
2022/07/06 11:29:55;;;;;;;1.75;0.20;;;22.00;52.00;;;;;;5004063;28;20034;-42
2022/07/06 11:32:26;;;;;;;1.63;0.30;;;22.10;52.30;;;;;;5008654;28;20664;-47
2022/07/06 11:34:52;;;;;;;2.13;0.30;;;22.00;50.80;;;;;;5006419;28;20478;-43
2022/07/06 11:37:20;;;;;;;2.72;0.20;;;22.00;51.30;;;;;;5003906;28;20108;-42
2022/07/06 11:39:47;;;;;;;1.35;0.20;;;22.00;51.20;;;;;;5001938;28;20041;-43
2022/07/06 11:42:17;;;;;;;2.08;0.20;;;22.20;50.80;;;;;;5006798;28;20049;-44
2022/07/06 11:44:44;;;;;;;1.25;0.25;;;22.40;49.40;;;;;;5008293;28;20056;-43
2022/07/06 11:47:11;;;;;;;2.00;0.30;;;22.40;48.90;;;;;;5000955;28;20490;-42
2022/07/06 11:49:39;;;;;;;2.70;0.30;;;22.50;48.60;;;;;;5004664;28;20041;-43
2022/07/06 11:52:13;;;;;;;0.95;0.15;;;22.70;48.90;;;;;;5007156;28;20037;-42
2022/07/06 11:54:40;;;;;;;1.73;0.25;;;22.80;49.30;;;;;;5007322;28;20104;-43
2022/07/06 11:57:09;;;;;;;2.88;0.30;;;22.90;49.60;;;;;;5002871;28;20052;-46
2022/07/06 11:59:37;;;;;;;1.13;0.20;;;22.90;48.50;;;;;;5009407;28;20390;-42
2022/07/06 12:02:08;;;;;;;2.15;0.30;;;22.90;48.60;;;;;;5007824;28;20073;-42
2022/07/06 12:04:37;;;;;;;1.33;0.30;;;23.00;49.50;;;;;;5004859;28;20054;-42
2022/07/06 12:07:05;;;;;;;1.67;0.20;;;23.10;49.10;;;;;;5005760;28;20435;-42
2022/07/06 12:09:32;;;;;;;2.13;0.30;;;23.20;48.90;;;;;;5004472;28;20563;-42
2022/07/06 12:11:58;;;;;;;2.30;0.40;;;23.10;48.70;;;;;;5006218;28;20418;-44
2022/07/06 12:14:23;;;;;;;1.80;0.20;;;23.20;48.40;;;;;;5004762;28;20052;-43
2022/07/06 12:16:50;;;;;;;1.08;0.20;;;23.20;48.60;;;;;;5002400;28;20034;-42
2022/07/06 12:19:16;;;;;;;2.92;0.40;;;23.00;49.10;;;;;;5006051;28;20088;-43
2022/07/06 12:21:51;;;;;;;1.20;0.30;;;22.90;49.30;;;;;;5005409;28;20180;-44
2022/07/06 12:24:26;;;;;;;1.85;0.30;;;22.90;48.90;;;;;;5003980;28;20042;-43
2022/07/06 12:26:53;;;;;;;0.47;0.20;;;22.90;48.90;;;;;;5009101;28;20184;-43
2022/07/06 12:29:21;;;;;;;2.25;0.40;;;22.80;47.90;;;;;;5003588;28;20046;-42
2022/07/06 12:31:56;;;;;;;2.22;0.30;;;22.70;48.70;;;;;;5006463;28;20109;-43
2022/07/06 12:34:24;;;;;;;3.20;0.30;;;22.90;47.60;;;;;;5002399;28;20037;-45
2022/07/06 12:36:53;;;;;;;1.08;0.25;;;23.00;48.00;;;;;;4985269;28;20315;-43
2022/07/06 12:39:23;;;;;;;1.45;0.43;;;22.90;47.80;;;;;;4998202;28;20065;-43
2022/07/06 12:41:54;;;;;;;5.57;0.30;;;22.90;47.90;;;;;;5003124;28;20491;-43
2022/07/06 12:44:24;;;;;;;1.50;0.30;;;23.10;47.30;;;;;;4986539;28;22024;-46
2022/07/06 12:47:07;;;;;;;2.83;0.28;;;23.40;46.80;;;;;;5000989;28;20118;-45
2022/07/06 12:49:34;;;;;;;1.80;0.30;;;23.50;44.00;;;;;;5007437;28;20049;-44
2022/07/06 12:52:06;;;;;;;2.13;0.35;;;23.50;46.10;;;;;;5003929;28;20038;-44
2022/07/06 12:54:50;;;;;;;0.88;0.30;;;23.40;45.50;;;;;;5000533;28;20045;-43